Time;durP1;ratioP1;P1;durP2;ratioP2;P2;SDS_P1;SDS_P2;PMS_P1;PMS_P2;Temp;Humidity;BMP_temperature;BMP_pressure;BME280_temperature;BME280_humidity;BME280_pressure;Samples;Min_cycle;Max_cycle;Signal;HPM_P1;HPM_P2
2021/06/09 00:01:11;;;;;;;26.87;16.40;;;;;;;11.15;100.00;94291.28;5074493;28;20199;-76
2021/06/09 00:03:37;;;;;;;27.70;17.30;;;;;;;11.11;100.00;94289.06;5074455;28;20236;-76
2021/06/09 00:06:04;;;;;;;28.93;18.07;;;;;;;11.08;100.00;94292.03;5074312;28;20252;-76
2021/06/09 00:08:30;;;;;;;33.13;18.80;;;;;;;11.20;100.00;94284.47;5074443;28;20218;-76
2021/06/09 00:10:56;;;;;;;38.50;19.07;;;;;;;11.22;100.00;94294.75;5074122;28;20198;-77
2021/06/09 00:13:24;;;;;;;33.60;19.07;;;;;;;11.14;100.00;94295.72;5073947;28;20282;-76
2021/06/09 00:15:52;;;;;;;35.13;18.67;;;;;;;11.07;100.00;94300.06;5074470;28;20198;-76
2021/06/09 00:18:18;;;;;;;31.37;18.83;;;;;;;11.13;100.00;94294.09;5073925;28;20201;-76
2021/06/09 00:20:44;;;;;;;28.83;16.50;;;;;;;11.05;100.00;94302.06;5074106;28;20202;-76
2021/06/09 00:23:11;;;;;;;35.47;20.13;;;;;;;11.15;100.00;94304.34;5073876;28;20247;-76
2021/06/09 00:25:38;;;;;;;38.47;20.63;;;;;;;11.22;100.00;94299.97;5073848;28;20199;-76
2021/06/09 00:28:05;;;;;;;37.33;21.17;;;;;;;11.25;100.00;94291.75;5073641;28;20654;-76
2021/06/09 00:30:34;;;;;;;34.00;19.97;;;;;;;11.27;100.00;94292.38;5073898;28;20203;-76
2021/06/09 00:33:02;;;;;;;30.67;18.97;;;;;;;11.19;100.00;94295.13;5076031;28;20728;-76
2021/06/09 00:35:29;;;;;;;27.33;16.60;;;;;;;11.03;100.00;94294.44;5073892;28;20225;-76
2021/06/09 00:37:56;;;;;;;29.70;17.87;;;;;;;10.93;100.00;94294.75;5073465;28;20720;-76
2021/06/09 00:40:22;;;;;;;28.50;18.03;;;;;;;10.92;100.00;94293.16;5073730;28;20202;-76
2021/06/09 00:43:07;;;;;;;31.97;16.17;;;;;;;10.84;100.00;94290.69;5073403;28;20203;-76
2021/06/09 00:45:34;;;;;;;28.30;16.93;;;;;;;10.81;100.00;94298.06;5073628;28;20272;-75
2021/06/09 00:48:02;;;;;;;32.07;18.87;;;;;;;10.84;100.00;94290.69;5073325;28;20658;-76
2021/06/09 00:50:28;;;;;;;37.53;20.23;;;;;;;10.92;100.00;94287.09;5073528;28;20256;-76
2021/06/09 00:52:54;;;;;;;37.00;20.30;;;;;;;10.83;100.00;94296.09;5073207;28;20227;-76
2021/06/09 00:55:20;;;;;;;29.00;17.40;;;;;;;10.75;100.00;94297.00;5073223;28;20602;-75
2021/06/09 00:57:49;;;;;;;35.40;17.27;;;;;;;10.71;100.00;94298.41;5073350;28;20281;-75
2021/06/09 01:00:16;;;;;;;28.87;16.80;;;;;;;10.65;100.00;94293.94;5073270;28;20210;-76
2021/06/09 01:02:42;;;;;;;37.53;18.90;;;;;;;10.67;100.00;94297.16;5073257;28;20242;-75
2021/06/09 01:05:10;;;;;;;37.23;20.23;;;;;;;10.69;100.00;94290.75;5073106;28;20259;-75
2021/06/09 01:07:37;;;;;;;39.00;21.07;;;;;;;10.65;100.00;94291.31;5073057;28;20249;-76
2021/06/09 01:10:05;;;;;;;37.30;20.17;;;;;;;10.65;100.00;94281.66;5073148;28;20226;-75
2021/06/09 01:12:31;;;;;;;45.30;21.90;;;;;;;10.68;100.00;94286.53;5073364;28;20617;-75
2021/06/09 01:14:57;;;;;;;36.83;21.53;;;;;;;10.82;100.00;94286.63;5072965;28;20203;-75
2021/06/09 01:17:23;;;;;;;53.13;29.73;;;;;;;10.84;100.00;94277.63;5071398;28;20499;-75
2021/06/09 01:19:50;;;;;;;65.20;30.10;;;;;;;11.01;100.00;94279.94;5073010;28;20199;-75
2021/06/09 01:22:17;;;;;;;58.53;27.00;;;;;;;11.07;100.00;94274.78;5072809;28;20600;-76
2021/06/09 01:24:43;;;;;;;32.70;18.50;;;;;;;10.79;100.00;94281.78;5072834;28;20256;-75
2021/06/09 01:27:09;;;;;;;26.87;17.57;;;;;;;10.68;100.00;94276.06;5073020;28;20549;-76
2021/06/09 01:29:36;;;;;;;37.13;20.40;;;;;;;10.72;100.00;94279.09;5072940;28;20195;-75
2021/06/09 01:32:03;;;;;;;42.37;21.67;;;;;;;10.72;100.00;94277.31;5072881;28;20203;-75
2021/06/09 01:34:29;;;;;;;39.40;21.67;;;;;;;10.72;100.00;94282.56;5072613;28;20279;-76
2021/06/09 01:36:55;;;;;;;37.63;20.63;;;;;;;10.67;100.00;94274.44;5072890;28;20195;-75
2021/06/09 01:39:22;;;;;;;40.70;20.43;;;;;;;10.67;100.00;94279.66;5072965;28;20223;-75
2021/06/09 01:41:51;;;;;;;36.23;19.93;;;;;;;10.61;100.00;94263.94;5072628;28;20673;-76
2021/06/09 01:44:17;;;;;;;46.00;22.00;;;;;;;10.58;100.00;94265.16;5072776;28;20264;-76
2021/06/09 01:46:43;;;;;;;69.87;29.83;;;;;;;10.66;100.00;94262.41;5072684;28;20203;-76
2021/06/09 01:49:11;;;;;;;56.63;24.87;;;;;;;10.68;100.00;94255.19;5072773;28;20241;-75
2021/06/09 01:51:38;;;;;;;88.80;33.50;;;;;;;11.00;100.00;94258.22;5072606;28;20264;-76
2021/06/09 01:54:05;;;;;;;117.73;40.30;;;;;;;11.07;100.00;94251.25;5072777;28;20226;-76
2021/06/09 01:56:32;;;;;;;119.20;41.77;;;;;;;11.28;100.00;94239.91;5072801;28;20202;-76
2021/06/09 01:58:58;;;;;;;87.10;34.67;;;;;;;11.28;100.00;94244.31;5072604;28;20207;-75
2021/06/09 02:01:24;;;;;;;115.60;43.50;;;;;;;11.43;100.00;94239.78;5072558;28;20423;-76
2021/06/09 02:03:50;;;;;;;97.90;37.63;;;;;;;11.40;100.00;94244.59;5072500;28;20211;-75
2021/06/09 02:06:16;;;;;;;94.50;33.90;;;;;;;11.39;100.00;94230.72;5072721;28;20210;-75
2021/06/09 02:08:42;;;;;;;80.20;33.67;;;;;;;11.33;100.00;94236.72;5072644;28;20214;-75
2021/06/09 02:11:08;;;;;;;58.93;28.37;;;;;;;11.13;100.00;94235.81;5072547;28;20203;-76
2021/06/09 02:13:36;;;;;;;53.43;25.10;;;;;;;11.08;100.00;94239.78;5072426;28;20249;-76
2021/06/09 02:16:03;;;;;;;36.83;21.03;;;;;;;10.98;100.00;94238.53;5072612;28;20206;-77
2021/06/09 02:18:29;;;;;;;44.27;22.63;;;;;;;10.96;100.00;94237.88;5072329;28;20205;-77
2021/06/09 02:20:57;;;;;;;52.03;23.80;;;;;;;10.83;100.00;94239.41;5072618;28;20618;-77
2021/06/09 02:23:25;;;;;;;47.50;22.53;;;;;;;10.81;100.00;94235.38;5072323;28;20234;-76
2021/06/09 02:25:56;;;;;;;55.37;26.47;;;;;;;10.81;100.00;94244.03;5072487;28;20203;-76
2021/06/09 02:28:26;;;;;;;79.43;32.23;;;;;;;10.93;100.00;94237.28;5075320;28;20722;-78
2021/06/09 02:30:54;;;;;;;83.73;35.77;;;;;;;11.18;100.00;94244.66;5076249;28;20229;-76
2021/06/09 02:33:22;;;;;;;110.03;41.23;;;;;;;11.40;100.00;94248.00;5075780;28;20713;-77
2021/06/09 02:35:49;;;;;;;108.77;42.33;;;;;;;11.44;100.00;94244.00;5076175;28;20222;-77
2021/06/09 02:38:16;;;;;;;120.30;44.07;;;;;;;11.44;100.00;94248.41;5078351;28;20194;-76
2021/06/09 02:40:45;;;;;;;102.27;38.57;;;;;;;11.41;100.00;94244.41;5075931;28;20539;-77
2021/06/09 02:43:12;;;;;;;94.27;37.90;;;;;;;11.31;100.00;94243.94;5075848;28;20286;-76
2021/06/09 02:45:39;;;;;;;114.50;41.10;;;;;;;11.49;100.00;94240.81;5075793;28;20206;-77
2021/06/09 02:48:11;;;;;;;73.50;30.63;;;;;;;11.37;100.00;94250.19;5075877;28;20203;-77
2021/06/09 02:50:38;;;;;;;54.70;25.23;;;;;;;11.08;100.00;94255.47;5075881;28;20218;-75
2021/06/09 02:53:09;;;;;;;44.33;21.80;;;;;;;10.86;100.00;94249.50;5075555;28;20227;-76
2021/06/09 02:55:53;;;;;;;42.37;22.00;;;;;;;10.69;100.00;94254.19;5075699;28;20209;-76
2021/06/09 02:58:33;;;;;;;59.63;26.63;;;;;;;10.74;100.00;94249.22;5075505;28;20226;-76
2021/06/09 03:01:11;;;;;;;63.83;28.57;;;;;;;10.73;100.00;94246.78;5075655;28;20198;-76
2021/06/09 03:03:47;;;;;;;77.47;30.53;;;;;;;10.75;100.00;94265.69;5075434;28;20198;-78
2021/06/09 03:06:20;;;;;;;67.90;30.70;;;;;;;10.81;100.00;94258.88;5075555;28;20656;-78
2021/06/09 03:08:55;;;;;;;54.37;25.57;;;;;;;10.66;100.00;94261.59;5075339;28;20228;-78
2021/06/09 03:11:29;;;;;;;71.77;31.03;;;;;;;10.64;100.00;94258.34;5075578;28;20244;-77
2021/06/09 03:14:04;;;;;;;120.73;40.67;;;;;;;10.84;100.00;94258.50;5075246;28;20234;-77
2021/06/09 03:16:34;;;;;;;115.40;39.97;;;;;;;11.08;100.00;94265.13;5075224;28;20342;-76
2021/06/09 03:19:05;;;;;;;96.73;34.90;;;;;;;10.95;100.00;94260.59;5075027;28;20202;-77
2021/06/09 03:21:39;;;;;;;66.13;27.67;;;;;;;10.79;100.00;94269.53;5075101;28;20558;-77
2021/06/09 03:24:10;;;;;;;54.97;26.77;;;;;;;10.63;100.00;94272.41;5074930;28;20708;-76
2021/06/09 03:26:43;;;;;;;46.77;23.40;;;;;;;10.55;100.00;94268.13;5075044;28;20251;-76
2021/06/09 03:29:16;;;;;;;63.67;28.87;;;;;;;10.55;100.00;94266.31;5074877;28;20673;-77
2021/06/09 03:31:47;;;;;;;88.40;33.80;;;;;;;10.64;100.00;94269.63;5075012;28;20227;-77
2021/06/09 03:34:20;;;;;;;73.63;31.27;;;;;;;10.71;100.00;94267.88;5075193;28;20232;-76
2021/06/09 03:36:48;;;;;;;79.33;31.20;;;;;;;10.68;100.00;94270.84;5075026;28;20601;-76
2021/06/09 03:39:19;;;;;;;61.60;25.67;;;;;;;10.63;100.00;94265.38;5074274;28;20256;-76
2021/06/09 03:41:51;;;;;;;67.43;29.90;;;;;;;10.65;100.00;94265.19;5074673;28;20688;-76
2021/06/09 03:44:22;;;;;;;56.70;26.27;;;;;;;10.68;100.00;94255.19;5074689;28;20649;-77
2021/06/09 03:46:50;;;;;;;56.43;24.17;;;;;;;10.71;100.00;94260.03;5074880;28;20612;-76
2021/06/09 03:49:19;;;;;;;52.43;22.60;;;;;;;10.73;100.00;94258.03;5074661;28;20205;-77
2021/06/09 03:51:47;;;;;;;67.67;28.23;;;;;;;10.88;100.00;94257.94;5074508;28;20710;-77
2021/06/09 03:54:15;;;;;;;75.67;30.93;;;;;;;11.04;100.00;94256.03;5074392;28;20250;-77
2021/06/09 03:56:43;;;;;;;58.03;26.10;;;;;;;11.15;100.00;94249.47;5074715;28;20256;-76
2021/06/09 03:59:10;;;;;;;68.07;33.35;;;;;;;11.21;100.00;94253.94;5073626;28;20438;-76
2021/06/09 04:01:39;;;;;;;65.37;29.13;;;;;;;11.19;100.00;94248.91;5074278;28;20653;-77
2021/06/09 04:04:07;;;;;;;52.20;24.97;;;;;;;11.29;100.00;94251.16;5074308;28;20199;-77
2021/06/09 04:06:39;;;;;;;50.63;23.63;;;;;;;11.39;100.00;94253.41;5074280;28;20214;-77
2021/06/09 04:09:06;;;;;;;60.13;26.92;;;;;;;11.55;100.00;94258.31;5073737;28;20445;-76
2021/06/09 04:11:34;;;;;;;52.37;25.80;;;;;;;11.65;100.00;94255.34;5074358;28;20211;-77
2021/06/09 04:14:02;;;;;;;55.13;27.60;;;;;;;11.66;100.00;94256.97;5074150;28;20231;-77
2021/06/09 04:16:32;;;;;;;49.37;23.60;;;;;;;11.83;100.00;94258.25;5074106;28;20205;-77
2021/06/09 04:18:59;;;;;;;49.13;24.07;;;;;;;11.82;100.00;94251.41;5073998;28;20199;-77
2021/06/09 04:21:25;;;;;;;51.73;23.87;;;;;;;11.90;100.00;94255.66;5073892;28;20206;-76
2021/06/09 04:23:53;;;;;;;46.77;24.67;;;;;;;11.87;100.00;94257.84;5073794;28;20230;-76
2021/06/09 04:26:20;;;;;;;44.07;22.07;;;;;;;12.00;100.00;94271.81;5073943;28;20199;-76
2021/06/09 04:28:46;;;;;;;41.40;21.60;;;;;;;12.24;100.00;94263.63;5073724;28;20646;-76
2021/06/09 04:31:13;;;;;;;43.77;23.53;;;;;;;12.21;100.00;94270.88;5073931;28;20198;-76
2021/06/09 04:33:40;;;;;;;42.77;21.17;;;;;;;12.31;100.00;94264.47;5073697;28;20254;-76
2021/06/09 04:36:11;;;;;;;52.93;26.03;;;;;;;12.40;100.00;94269.28;5073729;28;20199;-77
2021/06/09 04:38:38;;;;;;;48.13;25.80;;;;;;;12.38;100.00;94270.50;5073835;28;20206;-76
2021/06/09 04:41:06;;;;;;;37.77;21.13;;;;;;;12.25;100.00;94268.66;5076238;28;20199;-76
2021/06/09 04:43:32;;;;;;;39.07;21.03;;;;;;;12.40;100.00;94264.03;5073541;28;20202;-76
2021/06/09 04:45:58;;;;;;;36.40;20.87;;;;;;;12.39;100.00;94267.69;5073557;28;20561;-76
2021/06/09 04:48:24;;;;;;;40.43;22.47;;;;;;;12.48;100.00;94270.91;5073340;28;20673;-76
2021/06/09 04:50:51;;;;;;;38.60;20.53;;;;;;;12.65;100.00;94266.09;5072692;28;20685;-76
2021/06/09 04:53:18;;;;;;;39.00;20.37;;;;;;;12.90;100.00;94268.13;5073393;28;20230;-76
2021/06/09 04:55:45;;;;;;;41.67;21.02;;;;;;;13.05;100.00;94263.47;5073416;28;20714;-76
2021/06/09 04:58:15;;;;;;;41.90;23.63;;;;;;;12.98;100.00;94274.97;5073320;28;20207;-76
2021/06/09 05:00:43;;;;;;;40.13;21.00;;;;;;;13.06;100.00;94270.31;5073225;28;20207;-76
2021/06/09 05:03:09;;;;;;;33.03;20.00;;;;;;;13.06;100.00;94270.31;5073289;28;20684;-76
2021/06/09 05:05:35;;;;;;;30.73;18.83;;;;;;;13.16;100.00;94272.53;5073442;28;20203;-75
2021/06/09 05:08:01;;;;;;;32.42;19.42;;;;;;;13.46;100.00;94272.09;5073264;28;20210;-76
2021/06/09 05:10:28;;;;;;;42.80;23.45;;;;;;;13.49;100.00;94276.94;5073173;28;20249;-76
2021/06/09 05:12:57;;;;;;;41.25;22.52;;;;;;;13.83;100.00;94278.44;5073053;28;20283;-77
2021/06/09 05:15:27;;;;;;;41.53;22.75;;;;;;;13.97;100.00;94276.59;5073285;28;20293;-76
2021/06/09 05:17:53;;;;;;;33.85;20.15;;;;;;;13.90;100.00;94278.41;5073410;28;20199;-75
2021/06/09 05:20:24;;;;;;;36.83;21.08;;;;;;;14.22;100.00;94278.47;5072962;28;20692;-77
2021/06/09 05:22:56;;;;;;;34.50;20.45;;;;;;;14.30;100.00;94280.84;5073112;28;20203;-77
2021/06/09 05:25:22;;;;;;;31.73;19.38;;;;;;;14.57;100.00;94288.56;5072747;28;20242;-76
2021/06/09 05:27:50;;;;;;;32.40;19.15;;;;;;;14.97;100.00;94277.78;5072885;28;20658;-77
2021/06/09 05:30:18;;;;;;;27.00;16.92;;;;;;;14.72;100.00;94291.75;5072730;28;20210;-77
2021/06/09 05:32:46;;;;;;;27.08;17.83;;;;;;;14.93;100.00;94282.66;5072665;28;20557;-76
2021/06/09 05:35:15;;;;;;;31.85;18.83;;;;;;;15.65;100.00;94284.81;5073083;28;20195;-77
2021/06/09 05:37:45;;;;;;;33.63;19.75;;;;;;;16.05;100.00;94288.88;5071729;28;20438;-75
2021/06/09 05:40:16;;;;;;;26.92;16.73;;;;;;;16.14;100.00;94287.56;5072803;28;20293;-77
2021/06/09 05:42:42;;;;;;;34.63;16.83;;;;;;;16.83;100.00;94280.09;5072709;28;20222;-76
2021/06/09 05:45:08;;;;;;;26.35;15.82;;;;;;;16.95;100.00;94280.16;5072933;28;20225;-76
2021/06/09 05:47:40;;;;;;;27.33;15.65;;;;;;;17.66;100.00;94285.44;5072540;28;20682;-78
2021/06/09 05:50:12;;;;;;;38.17;18.08;;;;;;;18.04;100.00;94286.78;5072771;28;20206;-77
2021/06/09 05:52:38;;;;;;;44.55;21.38;;;;;;;18.07;100.00;94283.66;5072652;28;20252;-77
2021/06/09 05:55:06;;;;;;;44.85;20.40;;;;;;;18.45;100.00;94284.91;5072460;28;20744;-76
2021/06/09 05:57:32;;;;;;;40.30;19.73;;;;;;;18.53;100.00;94288.22;5072908;28;20210;-76
2021/06/09 05:59:58;;;;;;;38.03;17.70;;;;;;;19.33;100.00;94275.78;5072682;28;20195;-75
2021/06/09 06:02:28;;;;;;;43.50;18.60;;;;;;;19.46;100.00;94272.78;5074400;28;20205;-76
2021/06/09 06:04:55;;;;;;;35.75;17.42;;;;;;;19.87;100.00;94277.88;5076662;28;20205;-76
2021/06/09 06:07:25;;;;;;;26.05;15.80;;;;;;;21.24;91.96;94279.53;5076591;28;20198;-75
2021/06/09 06:09:51;;;;;;;30.20;15.35;;;;;;;21.61;88.51;94274.22;5076345;28;20554;-76
2021/06/09 06:12:18;;;;;;;42.05;18.15;;;;;;;21.16;88.39;94280.00;5076603;28;20198;-76
2021/06/09 06:14:44;;;;;;;39.15;18.33;;;;;;;19.76;96.35;94283.03;5076391;28;20227;-78
2021/06/09 06:17:10;;;;;;;30.80;17.67;;;;;;;19.68;96.14;94280.78;5076410;28;20277;-76
2021/06/09 06:19:37;;;;;;;34.83;17.65;;;;;;;18.64;100.00;94295.28;5076317;28;20248;-76
2021/06/09 06:22:08;;;;;;;33.58;18.58;;;;;;;18.53;100.00;94288.22;5076169;28;20648;-77
2021/06/09 06:24:38;;;;;;;35.90;18.40;;;;;;;18.33;100.00;94286.78;5075973;28;20234;-76
2021/06/09 06:27:06;;;;;;;27.55;15.90;;;;;;;18.41;100.00;94277.69;5076360;28;20289;-76
2021/06/09 06:29:32;;;;;;;31.35;16.73;;;;;;;18.45;100.00;94278.81;5075984;28;20202;-76
2021/06/09 06:31:59;;;;;;;29.42;16.85;;;;;;;18.56;100.00;94280.59;5076086;28;20285;-76
2021/06/09 06:34:26;;;;;;;24.60;14.48;;;;;;;18.64;100.00;94287.34;5075845;28;20689;-76
2021/06/09 06:37:02;;;;;;;29.65;15.77;;;;;;;19.21;100.00;94278.53;5075955;28;20696;-78
2021/06/09 06:39:28;;;;;;;26.73;15.13;;;;;;;19.44;100.00;94277.53;5078458;28;20596;-78
2021/06/09 06:41:56;;;;;;;30.77;15.40;;;;;;;20.09;100.00;94277.88;5075973;28;20198;-77
2021/06/09 06:44:22;;;;;;;23.15;14.30;;;;;;;20.94;97.74;94288.84;5075902;28;20205;-77
2021/06/09 06:46:49;;;;;;;29.23;16.02;;;;;;;21.10;89.17;94278.34;5075705;28;20203;-77
2021/06/09 06:49:16;;;;;;;28.92;14.75;;;;;;;20.88;89.17;94277.41;5075756;28;20203;-77
2021/06/09 06:51:42;;;;;;;18.15;11.68;;;;;;;21.41;90.92;94285.50;5075873;28;20557;-77
2021/06/09 06:54:09;;;;;;;24.17;13.30;;;;;;;21.55;88.93;94277.94;5075699;28;20258;-77
2021/06/09 06:56:36;;;;;;;22.35;13.15;;;;;;;22.23;82.15;94282.50;5075794;28;20203;-77
2021/06/09 06:59:03;;;;;;;20.25;13.45;;;;;;;22.09;82.93;94279.53;5075458;28;20210;-77
2021/06/09 07:01:31;;;;;;;22.70;13.35;;;;;;;22.35;81.03;94277.00;5075552;28;20205;-77
2021/06/09 07:03:58;;;;;;;24.40;12.70;;;;;;;22.13;83.81;94275.28;5075373;28;20209;-76
2021/06/09 07:06:25;;;;;;;24.83;13.95;;;;;;;20.77;88.43;94269.59;5075356;28;20198;-77
2021/06/09 07:08:51;;;;;;;20.65;13.77;;;;;;;19.56;96.33;94270.28;5075454;28;20558;-76
2021/06/09 07:11:17;;;;;;;24.27;14.10;;;;;;;18.97;99.90;94275.25;5075240;28;20203;-75
2021/06/09 07:13:45;;;;;;;25.73;15.02;;;;;;;18.73;100.00;94280.63;5074287;28;20257;-77
2021/06/09 07:16:12;;;;;;;22.98;14.82;;;;;;;18.58;100.00;94281.16;5075282;28;20260;-75
2021/06/09 07:18:44;;;;;;;25.48;15.05;;;;;;;18.04;100.00;94284.13;5075495;28;20202;-76
2021/06/09 07:21:12;;;;;;;30.88;15.63;;;;;;;18.46;100.00;94278.56;5075408;28;20248;-76
2021/06/09 07:23:38;;;;;;;22.67;14.45;;;;;;;18.88;100.00;94287.25;5074976;28;20231;-76
2021/06/09 07:26:06;;;;;;;21.13;14.68;;;;;;;18.40;100.00;94282.19;5075029;28;20657;-76
2021/06/09 07:28:34;;;;;;;22.45;14.20;;;;;;;18.38;100.00;94286.88;5075085;28;20231;-75
2021/06/09 07:31:01;;;;;;;25.48;15.10;;;;;;;18.00;100.00;94287.47;5074879;28;20263;-76
2021/06/09 07:33:28;;;;;;;25.10;14.65;;;;;;;18.09;100.00;94281.59;5074310;28;20333;-77
2021/06/09 07:35:57;;;;;;;21.30;14.90;;;;;;;18.12;100.00;94290.91;5073656;28;20202;-76
2021/06/09 07:38:27;;;;;;;23.92;14.80;;;;;;;18.06;100.00;94295.25;5074552;28;20247;-75
2021/06/09 07:40:57;;;;;;;24.25;14.57;;;;;;;18.34;100.00;94285.75;5074672;28;20213;-76
2021/06/09 07:43:26;;;;;;;24.13;14.68;;;;;;;18.33;100.00;94297.34;5074426;28;20206;-76
2021/06/09 07:45:53;;;;;;;23.23;14.77;;;;;;;18.65;100.00;94295.06;5074454;28;20427;-76
2021/06/09 07:48:22;;;;;;;22.05;14.73;;;;;;;18.67;100.00;94297.47;5074691;28;20244;-76
2021/06/09 07:50:53;;;;;;;28.17;13.52;;;;;;;19.12;100.00;94293.19;5074718;28;20243;-75
2021/06/09 07:53:21;;;;;;;20.98;14.80;;;;;;;19.08;100.00;94292.88;5074570;28;20226;-76
2021/06/09 07:55:48;;;;;;;22.70;14.43;;;;;;;19.01;100.00;94298.31;5074510;28;20202;-75
2021/06/09 07:58:16;;;;;;;23.27;13.07;;;;;;;18.98;100.00;94300.66;5074406;28;20198;-76
2021/06/09 08:00:47;;;;;;;20.65;13.00;;;;;;;18.95;100.00;94299.31;5074588;28;20224;-79
2021/06/09 08:03:16;;;;;;;20.77;14.18;;;;;;;18.84;100.00;94295.66;5074435;28;20661;-78
2021/06/09 08:05:42;;;;;;;17.52;11.82;;;;;;;19.00;100.00;94301.22;5074324;28;20199;-76
2021/06/09 08:08:12;;;;;;;21.48;13.63;;;;;;;18.92;100.00;94298.94;5074253;28;20210;-78
2021/06/09 08:10:40;;;;;;;24.63;13.48;;;;;;;18.99;100.00;94299.63;5074170;28;20686;-76
2021/06/09 08:13:06;;;;;;;22.40;13.55;;;;;;;18.80;100.00;94302.47;5073935;28;20658;-77
2021/06/09 08:15:33;;;;;;;20.20;13.95;;;;;;;18.71;100.00;94298.59;5073996;28;20615;-76
2021/06/09 08:17:59;;;;;;;19.60;12.80;;;;;;;18.76;100.00;94301.31;5074084;28;20210;-76
2021/06/09 08:20:26;;;;;;;15.77;11.50;;;;;;;18.96;100.00;94297.44;5073886;28;20211;-75
2021/06/09 08:22:52;;;;;;;15.75;10.25;;;;;;;19.00;100.00;94294.09;5073865;28;20209;-76
2021/06/09 08:25:24;;;;;;;15.98;9.68;;;;;;;19.06;98.03;94304.75;5073466;28;20238;-76
2021/06/09 08:27:50;;;;;;;16.23;9.55;;;;;;;19.23;96.07;94298.44;5073788;28;20704;-76
2021/06/09 08:30:18;;;;;;;18.30;10.40;;;;;;;19.44;96.09;94303.22;5073908;28;20203;-77
2021/06/09 08:32:48;;;;;;;15.82;9.95;;;;;;;19.42;95.61;94300.81;5073820;28;20218;-76
2021/06/09 08:35:14;;;;;;;16.10;9.15;;;;;;;19.31;94.28;94301.69;5073633;28;20230;-77
2021/06/09 08:37:41;;;;;;;13.07;9.18;;;;;;;19.38;94.39;94302.34;5073392;28;20206;-77
2021/06/09 08:40:10;;;;;;;15.27;9.82;;;;;;;19.37;93.71;94306.03;5073770;28;20207;-76
2021/06/09 08:42:42;;;;;;;12.20;8.93;;;;;;;19.32;93.96;94298.81;5073713;28;20195;-77
2021/06/09 08:45:10;;;;;;;13.52;8.40;;;;;;;19.44;93.92;94305.88;5073347;28;20561;-77
2021/06/09 08:47:37;;;;;;;15.60;9.15;;;;;;;19.33;94.17;94302.25;5076025;28;20190;-76
2021/06/09 08:50:05;;;;;;;12.88;9.25;;;;;;;19.51;94.11;94304.66;5073320;28;20214;-76
2021/06/09 08:52:31;;;;;;;15.48;8.98;;;;;;;19.54;91.15;94306.03;5073435;28;20198;-77
2021/06/09 08:54:59;;;;;;;12.90;9.23;;;;;;;19.49;93.93;94309.38;5073411;28;20227;-76
2021/06/09 08:57:29;;;;;;;15.57;10.00;;;;;;;19.77;94.96;94310.34;5073511;28;20210;-76
2021/06/09 08:59:56;;;;;;;13.80;8.60;;;;;;;19.81;96.35;94310.66;5073511;28;20206;-76
2021/06/09 09:02:22;;;;;;;16.23;9.68;;;;;;;19.65;91.70;94318.38;5073262;28;20577;-77
2021/06/09 09:04:48;;;;;;;13.68;9.45;;;;;;;19.38;93.35;94320.88;5073197;28;20290;-76
2021/06/09 09:07:14;;;;;;;16.63;9.00;;;;;;;19.72;95.46;94323.50;5073215;28;20206;-77
2021/06/09 09:09:40;;;;;;;15.32;9.90;;;;;;;19.96;93.26;94324.91;5072952;28;20202;-77
2021/06/09 09:12:07;;;;;;;13.85;9.77;;;;;;;20.04;91.48;94321.03;5071778;28;20240;-78
2021/06/09 09:14:34;;;;;;;20.98;11.38;;;;;;;20.05;91.55;94322.66;5072030;28;20234;-79
2021/06/09 09:17:09;;;;;;;22.35;11.63;;;;;;;20.07;93.16;94325.84;5073137;28;20202;-77
2021/06/09 09:19:40;;;;;;;20.83;11.23;;;;;;;20.18;91.80;94320.66;5072640;28;20230;-77
2021/06/09 09:22:07;;;;;;;15.25;10.27;;;;;;;20.20;90.52;94314.06;5072276;28;20281;-77
2021/06/09 09:24:39;;;;;;;20.38;10.65;;;;;;;20.34;94.25;94315.28;5072428;28;20246;-78
2021/06/09 09:27:06;;;;;;;20.02;10.65;;;;;;;20.42;92.72;94321.22;5072468;28;20244;-77
2021/06/09 09:29:32;;;;;;;16.60;9.93;;;;;;;20.42;91.05;94323.88;5072054;28;20644;-77
2021/06/09 09:32:00;;;;;;;16.10;9.95;;;;;;;20.70;92.71;94320.22;5071211;28;20198;-78
2021/06/09 09:34:37;;;;;;;20.95;11.57;;;;;;;20.69;89.16;94319.41;5072010;28;20234;-80
2021/06/09 09:37:05;;;;;;;16.55;10.85;;;;;;;20.68;88.33;94323.13;5069371;28;20205;-80
2021/06/09 09:39:32;;;;;;;15.27;9.73;;;;;;;20.58;86.82;94320.31;5072179;28;20203;-81
2021/06/09 09:42:16;;;;;;;14.02;9.55;;;;;;;20.87;89.43;94315.59;5072321;28;20554;-79
2021/06/09 09:44:42;;;;;;;15.38;10.25;;;;;;;21.00;91.11;94319.72;5072801;28;20657;-80
2021/06/09 09:47:15;;;;;;;18.33;10.18;;;;;;;20.98;90.73;94321.78;5072885;28;20229;-80
2021/06/09 09:49:42;;;;;;;11.02;7.80;;;;;;;20.99;85.50;94320.75;5071923;28;20661;-80
2021/06/09 09:52:09;;;;;;;10.80;7.30;;;;;;;21.20;85.98;94318.25;5072103;28;20238;-79
2021/06/09 09:54:37;;;;;;;9.60;6.43;;;;;;;21.13;78.48;94318.47;5072490;28;20321;-79
2021/06/09 09:57:06;;;;;;;10.20;7.43;;;;;;;21.20;81.44;94312.94;5071645;28;20289;-80
2021/06/09 09:59:36;;;;;;;14.35;8.05;;;;;;;21.24;79.63;94306.09;5072718;28;20202;-80
2021/06/09 10:02:04;;;;;;;9.80;7.20;;;;;;;21.16;82.62;94304.69;5072622;28;20199;-79
2021/06/09 10:04:33;;;;;;;12.65;7.28;;;;;;;21.13;81.66;94301.75;5072310;28;20198;-80
2021/06/09 10:07:02;;;;;;;14.75;8.43;;;;;;;20.76;83.74;94300.63;5088640;28;20265;-82
2021/06/09 10:09:36;;;;;;;11.10;7.47;;;;;;;21.03;84.33;94303.28;5092557;28;20275;-78
2021/06/09 10:12:05;;;;;;;9.18;6.82;;;;;;;21.15;84.26;94295.16;5092810;28;20199;-79
2021/06/09 10:14:33;;;;;;;12.27;7.72;;;;;;;21.21;82.83;94295.97;5092495;28;20226;-78
2021/06/09 10:17:01;;;;;;;10.55;7.22;;;;;;;21.26;81.09;94299.47;5091324;28;20669;-76
2021/06/09 10:19:31;;;;;;;11.80;7.70;;;;;;;21.43;84.95;94291.38;5092679;28;20205;-76
2021/06/09 10:22:02;;;;;;;10.82;8.18;;;;;;;21.49;79.99;94296.75;5092522;28;20198;-77
2021/06/09 10:24:29;;;;;;;9.65;7.20;;;;;;;21.51;78.88;94299.94;5092366;28;20237;-77
2021/06/09 10:27:00;;;;;;;10.80;7.32;;;;;;;21.65;78.89;94301.09;5092632;28;20229;-78
2021/06/09 10:29:29;;;;;;;9.60;7.28;;;;;;;21.71;82.06;94299.28;5092112;28;20296;-77
2021/06/09 10:31:57;;;;;;;11.40;7.57;;;;;;;21.75;78.89;94287.88;5092264;28;20198;-79
2021/06/09 10:34:25;;;;;;;9.98;7.13;;;;;;;21.83;83.29;94278.59;5092233;28;20258;-79
2021/06/09 10:36:53;;;;;;;9.18;6.93;;;;;;;21.97;84.10;94278.94;5092273;28;20216;-79
2021/06/09 10:39:22;;;;;;;10.83;7.70;;;;;;;21.83;79.92;94270.63;5091702;28;20443;-80
2021/06/09 10:41:51;;;;;;;10.98;7.00;;;;;;;21.75;81.18;94276.41;5092317;28;20803;-80
2021/06/09 10:44:19;;;;;;;9.30;7.00;;;;;;;21.61;79.65;94284.06;5090320;28;20653;-77
2021/06/09 10:46:47;;;;;;;8.63;6.43;;;;;;;21.68;74.54;94289.16;5087062;28;20203;-78
2021/06/09 10:49:16;;;;;;;10.63;6.95;;;;;;;21.69;76.75;94283.56;5093155;28;20597;-76
2021/06/09 10:51:44;;;;;;;11.77;7.78;;;;;;;21.99;80.82;94274.94;5095719;28;20205;-77
2021/06/09 10:54:13;;;;;;;11.95;6.25;;;;;;;22.03;73.59;94272.56;5095250;28;20684;-77
2021/06/09 10:56:40;;;;;;;6.35;4.88;;;;;;;22.27;73.08;94275.59;5095796;28;20673;-76
2021/06/09 10:59:11;;;;;;;14.02;5.95;;;;;;;22.47;77.04;94266.91;5095850;28;20324;-77
2021/06/09 11:01:37;;;;;;;9.32;6.07;;;;;;;22.42;75.02;94258.91;5095722;28;20210;-77
2021/06/09 11:04:04;;;;;;;8.15;5.93;;;;;;;22.16;70.57;94266.78;5095794;28;20252;-78
2021/06/09 11:06:42;;;;;;;10.30;6.00;;;;;;;21.94;71.48;94266.16;5095764;28;20198;-78
2021/06/09 11:09:12;;;;;;;8.23;6.15;;;;;;;22.14;72.12;94249.50;5095678;28;20532;-77
2021/06/09 11:11:38;;;;;;;7.80;5.97;;;;;;;22.23;70.19;94252.44;5095542;28;20656;-77
2021/06/09 11:14:18;;;;;;;7.95;6.25;;;;;;;22.47;69.63;94253.59;5095296;28;20233;-77
2021/06/09 11:16:48;;;;;;;7.13;5.68;;;;;;;22.50;70.51;94253.06;5095572;28;20796;-75
2021/06/09 11:19:30;;;;;;;8.95;5.65;;;;;;;22.69;70.12;94260.56;5095588;28;20220;-76